createdAt,value
2019-01-09T00:01:37.313Z,98452.23
2019-01-09T00:04:07.655Z,98452.23
2019-01-09T00:06:38.357Z,98453.28
2019-01-09T00:09:09.432Z,98464.97
2019-01-09T00:11:39.782Z,98458.09
2019-01-09T00:14:10.631Z,98462.98
2019-01-09T00:16:41.800Z,98457.59
2019-01-09T00:19:12.438Z,98453.53
2019-01-09T00:21:42.920Z,98463.61
2019-01-09T00:24:13.620Z,98454.50
2019-01-09T00:26:44.233Z,98454.05
2019-01-09T00:29:14.788Z,98461.17
2019-01-09T00:31:45.159Z,98467.92
2019-01-09T00:34:15.698Z,98466.27
2019-01-09T00:36:46.394Z,98465.59
2019-01-09T00:39:16.728Z,98466.65
2019-01-09T00:41:47.365Z,98472.22
2019-01-09T00:44:17.777Z,98470.10
2019-01-09T00:46:48.357Z,98472.84
2019-01-09T00:49:18.668Z,98472.84
2019-01-09T00:51:49.447Z,98477.56
2019-01-09T00:54:19.732Z,98480.98
2019-01-09T00:56:50.342Z,98481.23
2019-01-09T00:59:20.737Z,98483.71
2019-01-09T01:02:10.643Z,98482.11
2019-01-09T01:05:21.286Z,98487.30
2019-01-09T01:08:36.700Z,98487.92
2019-01-09T01:11:41.665Z,98488.17
2019-01-09T01:14:52.793Z,98491.63
2019-01-09T01:17:56.771Z,98496.47
2019-01-09T01:20:55.107Z,98496.65
2019-01-09T01:24:08.119Z,98496.65
2019-01-09T01:26:54.112Z,98487.78
2019-01-09T01:30:12.423Z,98492.67
2019-01-09T01:33:07.686Z,98482.55
2019-01-09T01:36:34.047Z,98492.59
2019-01-09T01:39:35.964Z,98501.08
2019-01-09T01:42:42.814Z,98497.95
2019-01-09T01:45:47.532Z,98494.14
2019-01-09T01:48:42.133Z,98494.14
2019-01-09T01:51:49.852Z,98499.84
2019-01-09T01:54:52.919Z,98497.67
2019-01-09T01:57:52.495Z,98501.61
2019-01-09T02:00:36.910Z,98516.44
2019-01-09T02:03:56.722Z,98507.57
2019-01-09T02:06:52.125Z,98513.30
2019-01-09T02:10:15.207Z,98509.79
2019-01-09T02:13:28.323Z,98512.01
2019-01-09T02:16:50.316Z,98503.14
2019-01-09T02:19:29.088Z,98503.64
2019-01-09T02:22:32.971Z,98514.16
2019-01-09T02:25:31.144Z,98510.92
2019-01-09T02:29:00.713Z,98515.81
2019-01-09T02:31:49.632Z,98514.16
2019-01-09T02:34:20.239Z,98504.34
2019-01-09T02:36:50.546Z,98513.64
2019-01-09T02:39:21.034Z,98507.97
2019-01-09T02:41:51.670Z,98507.69
2019-01-09T02:44:31.842Z,98501.16
2019-01-09T02:46:54.748Z,98506.59
2019-01-09T02:49:25.860Z,98509.67
2019-01-09T02:51:56.541Z,98510.80
2019-01-09T02:54:26.989Z,98507.22
2019-01-09T02:56:57.579Z,98506.04
2019-01-09T02:59:29.399Z,98513.41
2019-01-09T03:01:59.865Z,98497.92
2019-01-09T03:04:30.493Z,98501.84
2019-01-09T03:07:00.908Z,98502.46
2019-01-09T03:09:31.672Z,98498.14
2019-01-09T03:12:01.991Z,98504.73
2019-01-09T03:14:32.426Z,98507.01
2019-01-09T03:17:02.824Z,98507.01
2019-01-09T03:19:33.446Z,98490.93
2019-01-09T03:22:03.786Z,98498.02
2019-01-09T03:24:34.603Z,98494.80
2019-01-09T03:27:05.775Z,98494.80
2019-01-09T03:29:36.370Z,98498.71
2019-01-09T03:32:06.781Z,98494.45
2019-01-09T03:34:37.400Z,98489.16
2019-01-09T03:37:07.705Z,98489.16
2019-01-09T03:39:38.080Z,98491.09
2019-01-09T03:42:08.727Z,98498.75
2019-01-09T03:44:39.320Z,98498.75
2019-01-09T03:47:09.706Z,98500.67
2019-01-09T03:49:40.342Z,98501.08
2019-01-09T03:52:10.663Z,98502.39
2019-01-09T03:54:41.124Z,98501.86
2019-01-09T03:57:11.468Z,98501.70
2019-01-09T03:59:41.758Z,98497.88
2019-01-09T04:02:12.456Z,98507.30
2019-01-09T04:04:42.747Z,98506.00
2019-01-09T04:07:13.374Z,98506.80
2019-01-09T04:09:43.808Z,98508.67
2019-01-09T04:12:14.542Z,98499.59
2019-01-09T04:14:44.852Z,98499.59
2019-01-09T04:17:15.637Z,98500.62
2019-01-09T04:19:45.955Z,98505.78
2019-01-09T04:22:16.870Z,98506.34
2019-01-09T04:24:47.779Z,98512.03
2019-01-09T04:27:18.407Z,98507.37
2019-01-09T04:29:48.725Z,98506.87
2019-01-09T04:32:19.453Z,98502.14
2019-01-09T04:34:49.798Z,98500.00
2019-01-09T04:37:20.289Z,98501.11
2019-01-09T04:39:50.882Z,98496.86
2019-01-09T04:42:21.524Z,98497.05
2019-01-09T04:44:51.852Z,98498.72
2019-01-09T04:47:22.421Z,98501.86
2019-01-09T04:49:52.765Z,98504.00
2019-01-09T04:52:23.380Z,98505.44
2019-01-09T04:54:53.798Z,98510.38
2019-01-09T04:57:24.424Z,98502.77
2019-01-09T04:59:54.760Z,98508.27
2019-01-09T05:02:25.471Z,98502.83
2019-01-09T05:04:55.792Z,98508.05
2019-01-09T05:07:26.393Z,98500.83
2019-01-09T05:09:56.846Z,98505.25
2019-01-09T05:12:27.546Z,98509.35
2019-01-09T05:14:57.950Z,98503.66
2019-01-09T05:17:28.616Z,98504.06
2019-01-09T05:19:58.945Z,98507.11
2019-01-09T05:22:29.578Z,98501.79
2019-01-09T05:24:59.989Z,98507.73
2019-01-09T05:27:30.569Z,98499.27
2019-01-09T05:30:00.916Z,98502.23
2019-01-09T05:32:31.633Z,98504.16
2019-01-09T05:35:02.289Z,98505.30
2019-01-09T05:37:33.835Z,98513.83
2019-01-09T05:40:04.529Z,98518.92
2019-01-09T05:42:34.860Z,98519.73
2019-01-09T05:45:05.522Z,98524.68
2019-01-09T05:47:35.927Z,98526.95
2019-01-09T05:50:06.585Z,98531.30
2019-01-09T05:52:36.917Z,98536.09
2019-01-09T05:55:07.618Z,98539.55
2019-01-09T05:57:38.016Z,98542.96
2019-01-09T06:00:09.450Z,98541.67
2019-01-09T06:02:39.887Z,98547.66
2019-01-09T06:05:10.480Z,98543.52
2019-01-09T06:07:40.806Z,98549.92
2019-01-09T06:10:11.530Z,98549.08
2019-01-09T06:12:41.843Z,98549.36
2019-01-09T06:15:13.570Z,98547.02
2019-01-09T06:17:43.883Z,98553.20
2019-01-09T06:20:14.461Z,98543.72
2019-01-09T06:22:44.775Z,98548.67
2019-01-09T06:25:15.473Z,98548.55
2019-01-09T06:27:45.886Z,98549.02
2019-01-09T06:30:16.431Z,98555.66
2019-01-09T06:32:46.870Z,98556.84
2019-01-09T06:35:17.530Z,98563.25
2019-01-09T06:37:47.833Z,98566.67
2019-01-09T06:40:18.574Z,98570.87
2019-01-09T06:42:48.897Z,98574.31
2019-01-09T06:45:19.542Z,98506.55
2019-01-09T06:47:49.958Z,98584.68
2019-01-09T06:50:21.425Z,98589.28
2019-01-09T06:52:51.808Z,98592.78
2019-01-09T06:55:22.640Z,98589.48
2019-01-09T06:57:52.946Z,98594.09
2019-01-09T07:00:23.633Z,98593.67
2019-01-09T07:02:54.034Z,98596.86
2019-01-09T07:05:24.679Z,98598.02
2019-01-09T07:07:55.341Z,98602.66
2019-01-09T07:10:25.775Z,98603.16
2019-01-09T07:12:56.406Z,98603.50
2019-01-09T07:15:26.846Z,98609.77
2019-01-09T07:17:57.628Z,98607.30
2019-01-09T07:20:27.942Z,98615.48
2019-01-09T07:22:58.508Z,98615.90
2019-01-09T07:25:29.367Z,98615.05
2019-01-09T07:28:00.937Z,98622.55
2019-01-09T07:30:31.529Z,98619.47
2019-01-09T07:33:01.946Z,98619.59
2019-01-09T07:35:32.685Z,98628.46
2019-01-09T07:38:03.307Z,98628.11
2019-01-09T07:40:33.872Z,98627.50
2019-01-09T07:43:04.704Z,98634.72
2019-01-09T07:45:35.035Z,98634.72
2019-01-09T07:48:05.620Z,98637.33
2019-01-09T07:50:36.277Z,98640.70
2019-01-09T07:53:06.662Z,98642.55
2019-01-09T07:55:37.116Z,98644.35
2019-01-09T07:58:07.784Z,98651.34
2019-01-09T08:00:38.458Z,98646.73
2019-01-09T08:03:08.897Z,98649.00
2019-01-09T08:05:39.860Z,98649.35
2019-01-09T08:08:10.522Z,98649.35
2019-01-09T08:10:49.714Z,98651.50
2019-01-09T08:13:20.358Z,98658.03
2019-01-09T08:15:50.690Z,98652.46
2019-01-09T08:18:21.396Z,98656.84
2019-01-09T08:20:51.802Z,98666.67
2019-01-09T08:23:22.390Z,98663.87
2019-01-09T08:25:53.275Z,98663.87
2019-01-09T08:28:23.783Z,98671.85
2019-01-09T08:30:54.410Z,98670.94
2019-01-09T08:33:24.951Z,98670.94
2019-01-09T08:35:55.526Z,98674.39
2019-01-09T08:38:25.870Z,98677.96
2019-01-09T08:40:56.803Z,98673.63
2019-01-09T08:43:27.420Z,98677.54
2019-01-09T08:45:57.787Z,98691.59
2019-01-09T08:48:28.556Z,98686.38
2019-01-09T08:50:58.889Z,98686.38
2019-01-09T08:53:29.520Z,98698.25
2019-01-09T08:55:59.938Z,98695.78
2019-01-09T08:58:30.600Z,98701.12
2019-01-09T09:01:00.911Z,98704.50
2019-01-09T09:03:31.667Z,98701.27
2019-01-09T09:06:02.023Z,98712.09
2019-01-09T09:08:32.562Z,98708.68
2019-01-09T09:11:03.025Z,98708.80
2019-01-09T09:13:40.996Z,98713.67
2019-01-09T09:16:12.669Z,98715.90
2019-01-09T09:18:43.474Z,98714.59
2019-01-09T09:21:13.874Z,98724.80
2019-01-09T09:23:44.573Z,98719.23
2019-01-09T09:26:15.146Z,98734.44
2019-01-09T09:28:45.499Z,98732.17
2019-01-09T09:31:16.868Z,98738.70
2019-01-09T09:33:47.593Z,98732.17
2019-01-09T09:36:17.995Z,98735.48
2019-01-09T09:38:48.423Z,98737.13
2019-01-09T09:41:18.843Z,98733.91
2019-01-09T09:44:05.164Z,98735.68
2019-01-09T09:46:35.617Z,98734.95
2019-01-09T09:49:06.088Z,98739.22
2019-01-09T09:51:36.780Z,98740.60
2019-01-09T09:54:07.595Z,98739.56
2019-01-09T09:56:37.922Z,98741.83
2019-01-09T09:59:08.564Z,98741.67
2019-01-09T10:01:38.987Z,98741.22
2019-01-09T10:04:09.475Z,98747.47
2019-01-09T10:06:39.826Z,98747.91
2019-01-09T10:09:12.029Z,98749.91
2019-01-09T10:11:42.476Z,98746.67
2019-01-09T10:14:12.848Z,98751.91
2019-01-09T10:16:43.544Z,98752.52
2019-01-09T10:19:14.787Z,98747.98
2019-01-09T10:21:45.634Z,98747.98
2019-01-09T10:24:16.062Z,98750.94
2019-01-09T10:26:46.463Z,98750.74
2019-01-09T10:29:16.823Z,98746.76
2019-01-09T10:31:47.398Z,98755.67
2019-01-09T10:34:17.797Z,98755.67
2019-01-09T10:36:48.857Z,98755.52
2019-01-09T10:39:19.629Z,98758.09
2019-01-09T10:41:50.041Z,98755.90
2019-01-09T10:44:20.556Z,98754.33
2019-01-09T10:46:50.978Z,98761.47
2019-01-09T10:49:21.723Z,98761.20
2019-01-09T10:51:52.376Z,98769.23
2019-01-09T10:54:22.846Z,98771.58
2019-01-09T10:56:53.487Z,98775.50
2019-01-09T10:59:23.838Z,98774.69
2019-01-09T11:01:54.533Z,98773.23
2019-01-09T11:04:24.883Z,98777.03
2019-01-09T11:06:55.522Z,98778.41
2019-01-09T11:09:25.940Z,98770.94
2019-01-09T11:11:58.593Z,98769.20
2019-01-09T11:14:29.001Z,98772.91
2019-01-09T11:17:08.207Z,98769.44
2019-01-09T11:19:38.772Z,98766.90
2019-01-09T11:22:09.381Z,98766.90
2019-01-09T11:24:39.825Z,98768.26
2019-01-09T11:27:10.436Z,98765.52
2019-01-09T11:29:40.972Z,98768.83
2019-01-09T11:32:11.687Z,98764.55
2019-01-09T11:34:42.020Z,98767.00
2019-01-09T11:37:12.672Z,98764.47
2019-01-09T11:39:43.483Z,98764.81
2019-01-09T11:42:13.834Z,98766.59
2019-01-09T11:44:44.487Z,98765.85
2019-01-09T11:47:14.967Z,98769.13
2019-01-09T11:49:45.620Z,98776.91
2019-01-09T11:52:15.964Z,98772.71
2019-01-09T11:54:46.701Z,98778.36
2019-01-09T11:57:17.339Z,98771.80
2019-01-09T11:59:47.669Z,98776.56
2019-01-09T12:02:22.260Z,98778.69
2019-01-09T12:04:50.502Z,98787.02
2019-01-09T12:07:20.814Z,98785.91
2019-01-09T12:09:51.569Z,98786.80
2019-01-09T12:12:21.948Z,98788.45
2019-01-09T12:14:52.559Z,98782.95
2019-01-09T12:17:22.959Z,98790.33
2019-01-09T12:19:53.463Z,98788.80
2019-01-09T12:22:23.843Z,98793.95
2019-01-09T12:24:54.557Z,98794.56
2019-01-09T12:27:24.873Z,98792.37
2019-01-09T12:29:55.637Z,98807.17
2019-01-09T12:32:26.078Z,98808.89
2019-01-09T12:34:56.810Z,98809.52
2019-01-09T12:37:27.440Z,98814.70
2019-01-09T12:39:57.827Z,98815.11
2019-01-09T12:42:28.511Z,98822.46
2019-01-09T12:44:59.362Z,98825.92
2019-01-09T12:47:29.839Z,98831.95
2019-01-09T12:50:07.276Z,98835.27
2019-01-09T12:52:37.735Z,98836.45
2019-01-09T12:55:08.721Z,98843.06
2019-01-09T12:57:39.391Z,98847.91
2019-01-09T13:00:20.250Z,98847.91
2019-01-09T13:02:50.822Z,98848.72
2019-01-09T13:05:21.471Z,98852.44
2019-01-09T13:07:51.847Z,98856.91
2019-01-09T13:10:22.612Z,98860.71
2019-01-09T13:12:53.059Z,98864.83
2019-01-09T13:15:23.450Z,98872.33
2019-01-09T13:17:53.929Z,98867.09
2019-01-09T13:20:24.448Z,98868.75
2019-01-09T13:22:54.835Z,98873.98
2019-01-09T13:25:26.990Z,98879.09
2019-01-09T13:27:57.545Z,98879.09
2019-01-09T13:30:27.971Z,98880.05
2019-01-09T13:32:58.850Z,98884.59
2019-01-09T13:35:29.518Z,98883.63
2019-01-09T13:37:59.839Z,98890.37
2019-01-09T13:40:30.637Z,98885.98
2019-01-09T13:43:01.008Z,98896.52
2019-01-09T13:45:31.522Z,98903.13
2019-01-09T13:48:01.952Z,98904.86
2019-01-09T13:50:32.435Z,98901.47
2019-01-09T13:53:02.777Z,98910.52
2019-01-09T13:55:33.667Z,98906.94
2019-01-09T13:58:04.296Z,98915.94
2019-01-09T14:00:34.940Z,98915.47
2019-01-09T14:03:06.936Z,98919.74
2019-01-09T14:05:37.426Z,98920.09
2019-01-09T14:08:07.737Z,98927.73
2019-01-09T14:10:38.442Z,98927.73
2019-01-09T14:13:08.835Z,98925.59
2019-01-09T14:15:39.442Z,98925.47
2019-01-09T14:18:09.891Z,98929.59
2019-01-09T14:20:40.506Z,98935.16
2019-01-09T14:23:11.680Z,98941.24
2019-01-09T14:25:42.545Z,98948.13
2019-01-09T14:28:13.014Z,98947.17
2019-01-09T14:30:43.665Z,98960.10
2019-01-09T14:33:14.530Z,98961.30
2019-01-09T14:35:44.953Z,98964.25
2019-01-09T14:38:15.640Z,98967.69
2019-01-09T14:40:46.455Z,98968.52
2019-01-09T14:43:16.807Z,98972.45
2019-01-09T14:45:47.512Z,98980.30
2019-01-09T14:48:17.969Z,98981.12
2019-01-09T14:50:50.127Z,98983.39
2019-01-09T14:53:20.728Z,98994.20
2019-01-09T14:55:51.465Z,98991.12
2019-01-09T14:58:21.873Z,98998.98
2019-01-09T15:00:52.902Z,98995.52
2019-01-09T15:03:23.621Z,99001.59
2019-01-09T15:05:54.473Z,99001.44
2019-01-09T15:08:24.865Z,99008.95
2019-01-09T15:10:55.633Z,99007.64
2019-01-09T15:13:26.034Z,99010.14
2019-01-09T15:15:56.758Z,99015.72
2019-01-09T15:18:27.512Z,99018.95
2019-01-09T15:20:57.837Z,99023.34
2019-01-09T15:23:28.524Z,99031.55
2019-01-09T15:26:02.553Z,99032.86
2019-01-09T15:28:32.949Z,99033.81
2019-01-09T15:31:03.789Z,99033.97
2019-01-09T15:33:34.501Z,99036.59
2019-01-09T15:36:05.237Z,99037.05
2019-01-09T15:38:35.843Z,99037.05
2019-01-09T15:41:08.062Z,99045.75
2019-01-09T15:43:38.469Z,99054.91
2019-01-09T15:46:08.854Z,99057.38
2019-01-09T15:48:39.650Z,99054.41
2019-01-09T15:51:10.317Z,99067.50
2019-01-09T15:53:40.732Z,99072.27
2019-01-09T15:56:11.461Z,99080.47
2019-01-09T15:58:41.895Z,99082.25
2019-01-09T16:01:12.670Z,99085.70
2019-01-09T16:03:43.143Z,99088.44
2019-01-09T16:06:13.557Z,99099.75
2019-01-09T16:08:43.934Z,99106.16
2019-01-09T16:11:14.650Z,99109.38
2019-01-09T16:13:44.982Z,99110.58
2019-01-09T16:16:15.428Z,99121.86
2019-01-09T16:18:45.887Z,99129.36
2019-01-09T16:21:16.519Z,99122.36
2019-01-09T16:23:46.885Z,99135.09
2019-01-09T16:26:17.606Z,99138.52
2019-01-09T16:28:47.952Z,99141.14
2019-01-09T16:31:30.778Z,99144.72
2019-01-09T16:34:01.557Z,99149.69
2019-01-09T16:36:33.068Z,99149.69
2019-01-09T16:39:04.054Z,99155.55
2019-01-09T16:41:34.837Z,99157.46
2019-01-09T16:44:05.547Z,99163.54
2019-01-09T16:46:36.024Z,99169.39
2019-01-09T16:49:06.477Z,99167.03
2019-01-09T16:51:36.833Z,99179.77
2019-01-09T16:54:07.555Z,99181.54
2019-01-09T16:56:38.392Z,99191.31
2019-01-09T16:59:15.738Z,99196.90
2019-01-09T17:01:46.443Z,99202.63
2019-01-09T17:04:16.796Z,99202.63
2019-01-09T17:06:47.726Z,99208.33
2019-01-09T17:09:19.633Z,99211.79
2019-01-09T17:11:49.971Z,99207.16
2019-01-09T17:14:20.635Z,99213.98
2019-01-09T17:16:51.182Z,99215.00
2019-01-09T17:19:21.488Z,99219.98
2019-01-09T17:21:51.819Z,99225.67
2019-01-09T17:24:22.930Z,99230.09
2019-01-09T17:26:53.450Z,99237.94
2019-01-09T17:29:23.922Z,99245.79
2019-01-09T17:31:54.511Z,99245.44
2019-01-09T17:34:24.945Z,99251.63
2019-01-09T17:36:55.578Z,99258.98
2019-01-09T17:39:26.110Z,99265.06
2019-01-09T17:41:56.844Z,99267.23
2019-01-09T17:44:27.476Z,99276.04
2019-01-09T17:46:58.149Z,99271.16
2019-01-09T17:49:28.507Z,99288.06
2019-01-09T17:51:58.881Z,99287.11
2019-01-09T17:54:29.623Z,99297.22
2019-01-09T17:56:59.940Z,99297.32
2019-01-09T17:59:32.594Z,99308.15
2019-01-09T18:02:02.895Z,99315.54
2019-01-09T18:04:33.466Z,99314.23
2019-01-09T18:07:04.763Z,99326.36
2019-01-09T18:09:35.491Z,99327.17
2019-01-09T18:12:06.098Z,99332.69
2019-01-09T18:14:36.451Z,99332.69
2019-01-09T18:17:06.884Z,99330.88
2019-01-09T18:19:37.591Z,99332.30
2019-01-09T18:22:08.512Z,99341.00
2019-01-09T18:24:38.968Z,99340.75
2019-01-09T18:27:09.609Z,99345.63
2019-01-09T18:29:39.940Z,99349.09
2019-01-09T18:32:25.936Z,99360.13
2019-01-09T18:35:14.242Z,99363.48
2019-01-09T18:38:16.077Z,99371.19
2019-01-09T18:41:16.092Z,99378.33
2019-01-09T18:44:18.123Z,99377.02
2019-01-09T18:47:12.344Z,99389.61
2019-01-09T18:50:32.264Z,99396.65
2019-01-09T18:53:19.471Z,99409.02
2019-01-09T18:55:50.525Z,99409.02
2019-01-09T18:58:20.857Z,99411.64
2019-01-09T19:00:51.530Z,99412.10
2019-01-09T19:03:28.476Z,99418.64
2019-01-09T19:05:59.491Z,99421.97
2019-01-09T19:08:29.843Z,99427.55
2019-01-09T19:11:07.670Z,99436.36
2019-01-09T19:13:32.643Z,99442.55
2019-01-09T19:16:03.000Z,99447.91
2019-01-09T19:18:33.550Z,99450.04
2019-01-09T19:21:03.941Z,99449.58
2019-01-09T19:23:34.575Z,99458.38
2019-01-09T19:26:06.803Z,99461.59
2019-01-09T19:28:37.430Z,99471.81
2019-01-09T19:31:07.784Z,99472.52
2019-01-09T19:33:38.575Z,99475.27
2019-01-09T19:36:08.988Z,99472.16
2019-01-09T19:38:39.908Z,99485.50
2019-01-09T19:41:16.932Z,99478.26
2019-01-09T19:43:42.778Z,99486.81
2019-01-09T19:46:13.523Z,99486.33
2019-01-09T19:48:44.198Z,99495.02
2019-01-09T19:51:17.723Z,99500.47
2019-01-09T19:53:46.963Z,99499.55
2019-01-09T19:56:18.925Z,99507.51
2019-01-09T19:58:49.539Z,99507.51
2019-01-09T20:01:19.884Z,99509.53
2019-01-09T20:03:50.647Z,99515.59
2019-01-09T20:06:21.045Z,99523.80
2019-01-09T20:08:51.563Z,99519.73
2019-01-09T20:11:26.511Z,99518.08
2019-01-09T20:13:54.213Z,99529.00
2019-01-09T20:16:24.944Z,99529.24
2019-01-09T20:18:55.831Z,99533.08
2019-01-09T20:21:26.535Z,99538.02
2019-01-09T20:23:56.915Z,99539.72
2019-01-09T20:26:27.670Z,99548.67
2019-01-09T20:28:58.069Z,99554.07
2019-01-09T20:31:28.826Z,99559.33
2019-01-09T20:33:59.566Z,99559.21
2019-01-09T20:36:31.723Z,99570.73
2019-01-09T20:39:02.542Z,99568.38
2019-01-09T20:41:35.420Z,99572.67
2019-01-09T20:44:05.459Z,99576.70
2019-01-09T20:46:35.824Z,99586.33
2019-01-09T20:49:06.873Z,99589.32
2019-01-09T20:51:37.715Z,99590.73
2019-01-09T20:54:09.410Z,99599.79
2019-01-09T20:56:40.014Z,99599.89
2019-01-09T20:59:10.653Z,99605.62
2019-01-09T21:01:41.169Z,99606.34
2019-01-09T21:04:11.606Z,99617.27
2019-01-09T21:06:42.087Z,99615.86
2019-01-09T21:09:12.495Z,99629.46
2019-01-09T21:11:44.466Z,99632.45
2019-01-09T21:14:15.392Z,99634.98
2019-01-09T21:16:45.919Z,99646.06
2019-01-09T21:19:16.937Z,99646.06
2019-01-09T21:21:47.560Z,99644.72
2019-01-09T21:24:17.977Z,99654.36
2019-01-09T21:26:48.840Z,99660.65
2019-01-09T21:29:19.668Z,99656.02
2019-01-09T21:31:50.343Z,99668.47
2019-01-09T21:34:20.959Z,99664.66
2019-01-09T21:36:51.823Z,99676.06
2019-01-09T21:39:23.058Z,99656.16
2019-01-09T21:41:53.726Z,99678.52
2019-01-09T21:44:24.589Z,99682.48
2019-01-09T21:46:55.022Z,99693.30
2019-01-09T21:49:25.592Z,99700.96
2019-01-09T21:51:56.104Z,99702.08
2019-01-09T21:54:26.585Z,99712.52
2019-01-09T21:56:57.438Z,99717.88
2019-01-09T21:59:27.903Z,99724.36
2019-01-09T22:01:58.689Z,99724.73
2019-01-09T22:04:29.845Z,99728.57
2019-01-09T22:07:00.701Z,99730.84
2019-01-09T22:09:31.691Z,99736.14
2019-01-09T22:12:02.871Z,99740.56
2019-01-09T22:14:33.562Z,99742.06
2019-01-09T22:17:04.042Z,99742.06
2019-01-09T22:19:35.939Z,99743.97
2019-01-09T22:22:06.689Z,99748.02
2019-01-09T22:24:37.204Z,99752.59
2019-01-09T22:27:07.909Z,99754.33
2019-01-09T22:29:38.644Z,99762.24
2019-01-09T22:32:08.997Z,99764.91
2019-01-09T22:34:39.687Z,99767.08
2019-01-09T22:37:10.360Z,99768.27
2019-01-09T22:39:40.817Z,99765.92
2019-01-09T22:42:12.306Z,99768.25
2019-01-09T22:44:42.802Z,99768.12
2019-01-09T22:47:13.468Z,99773.34
2019-01-09T22:49:43.873Z,99775.53
2019-01-09T22:52:14.452Z,99782.92
2019-01-09T22:54:44.975Z,99782.25
2019-01-09T22:57:15.458Z,99785.69
2019-01-09T22:59:46.821Z,99792.36
2019-01-09T23:02:17.650Z,99790.11
2019-01-09T23:04:47.982Z,99791.20
2019-01-09T23:07:18.425Z,99791.56
2019-01-09T23:09:48.999Z,99797.06
2019-01-09T23:12:21.461Z,99805.14
2019-01-09T23:14:51.712Z,99801.22
2019-01-09T23:17:22.540Z,99796.25
2019-01-09T23:19:52.999Z,99806.95
2019-01-09T23:22:23.536Z,99804.23
2019-01-09T23:24:54.026Z,99811.81
2019-01-09T23:27:24.458Z,99806.95
2019-01-09T23:29:54.805Z,99812.91
2019-01-09T23:32:25.530Z,99814.94
2019-01-09T23:34:55.984Z,99824.07
2019-01-09T23:37:27.835Z,99829.61
2019-01-09T23:39:58.595Z,99821.77
2019-01-09T23:42:30.550Z,99832.92
2019-01-09T23:45:01.494Z,99832.92
2019-01-09T23:47:31.856Z,99835.03
2019-01-09T23:50:02.326Z,99837.41
2019-01-09T23:52:32.779Z,99841.56
2019-01-09T23:55:03.504Z,99850.52
2019-01-09T23:57:33.794Z,99852.95
